Time;durP1;ratioP1;P1;durP2;ratioP2;P2;SDS_P1;SDS_P2;PMS_P1;PMS_P2;Temp;Humidity;BMP_temperature;BMP_pressure;BME280_temperature;BME280_humidity;BME280_pressure;Samples;Min_cycle;Max_cycle;Signal;HPM_P1;HPM_P2
2022/08/31 00:05:26;;;;;;;;;;;19.30;97.90;;;;;;5067673;28;19928;-73
2022/08/31 00:07:53;;;;;;;;;;;19.30;98.20;;;;;;5085521;28;19928;-73
2022/08/31 00:10:26;;;;;;;;;;;19.30;98.30;;;;;;5088157;28;20451;-72
2022/08/31 00:12:53;;;;;;;;;;;19.30;98.40;;;;;;5065623;28;19928;-73
2022/08/31 00:15:21;;;;;;;;;;;19.30;98.30;;;;;;5068150;28;20282;-73
2022/08/31 00:17:48;;;;;;;;;;;19.30;98.60;;;;;;5063765;28;19935;-73
2022/08/31 00:20:17;;;;;;;;;;;19.30;98.90;;;;;;5063141;28;20041;-73
2022/08/31 00:22:44;;;;;;;;;;;19.30;99.00;;;;;;5059413;28;20321;-73
2022/08/31 00:25:11;;;;;;;;;;;19.30;99.20;;;;;;5060772;28;19932;-73
2022/08/31 00:27:39;;;;;;;;;;;19.20;99.40;;;;;;5064609;28;20059;-72
2022/08/31 00:30:07;;;;;;;;;;;19.10;99.50;;;;;;5050365;28;19925;-74
2022/08/31 00:32:34;;;;;;;;;;;19.10;99.90;;;;;;5050055;28;20394;-73
2022/08/31 00:35:01;;;;;;;;;;;19.00;99.90;;;;;;5053845;28;20035;-72
2022/08/31 00:37:27;;;;;;;;;;;19.00;99.90;;;;;;5049493;28;19932;-72
2022/08/31 00:39:54;;;;;;;;;;;19.00;99.90;;;;;;5065829;28;19931;-73
2022/08/31 00:42:22;;;;;;;;;;;18.90;99.90;;;;;;5057142;28;19932;-73
2022/08/31 00:44:50;;;;;;;;;;;18.90;99.90;;;;;;5060559;28;19951;-73
2022/08/31 00:47:17;;;;;;;;;;;18.90;99.90;;;;;;5054479;28;20413;-73
2022/08/31 00:49:45;;;;;;;;;;;18.90;99.90;;;;;;5059361;28;20470;-73
2022/08/31 00:52:14;;;;;;;;;;;18.90;99.90;;;;;;5060324;28;19933;-73
2022/08/31 00:54:44;;;;;;;;;;;19.50;99.90;;;;;;5061905;28;19936;-73
2022/08/31 00:57:11;;;;;;;;;;;18.90;99.90;;;;;;5060301;28;19928;-73
2022/08/31 00:59:39;;;;;;;;;;;18.80;99.90;;;;;;5067121;28;20330;-74
2022/08/31 01:02:07;;;;;;;;;;;17.20;99.90;;;;;;5066467;28;19928;-74
2022/08/31 01:04:34;;;;;;;;;;;18.80;99.90;;;;;;5063208;28;19928;-74
2022/08/31 01:07:02;;;;;;;;;;;18.70;99.90;;;;;;5051156;28;20360;-72
2022/08/31 01:09:30;;;;;;;;;;;18.70;99.90;;;;;;5064217;28;19936;-72
2022/08/31 01:11:57;;;;;;;;;;;18.60;99.90;;;;;;5066845;28;19943;-73
2022/08/31 01:14:24;;;;;;;;;;;18.50;99.90;;;;;;5049760;28;19929;-73
2022/08/31 01:16:52;;;;;;;;;;;18.50;99.90;;;;;;5055928;28;19951;-73
2022/08/31 01:19:24;;;;;;;;;;;18.40;99.90;;;;;;5053832;28;19928;-73
2022/08/31 01:21:56;;;;;;;;;;;18.30;99.90;;;;;;5065406;28;19936;-73
2022/08/31 01:24:26;;;;;;;;;;;18.30;99.90;;;;;;5064164;28;19962;-73
2022/08/31 01:26:54;;;;;;;;;;;18.20;99.90;;;;;;5057843;28;20007;-73
2022/08/31 01:29:21;;;;;;;;;;;18.20;99.90;;;;;;5062033;28;19939;-74
2022/08/31 01:31:48;;;;;;;;;;;18.20;99.90;;;;;;5055286;28;19960;-73
2022/08/31 01:34:16;;;;;;;;;;;18.10;99.90;;;;;;5064834;28;19932;-73
2022/08/31 01:36:44;;;;;;;;;;;18.00;99.90;;;;;;5057211;28;20370;-73
2022/08/31 01:39:11;;;;;;;;;;;18.00;99.90;;;;;;5065484;28;20409;-73
2022/08/31 01:41:42;;;;;;;;;;;18.00;99.90;;;;;;5067080;28;20008;-73
2022/08/31 01:44:09;;;;;;;;;;;17.90;99.90;;;;;;5057580;28;19991;-74
2022/08/31 01:46:37;;;;;;;;;;;17.90;99.90;;;;;;5055173;28;20644;-72
2022/08/31 01:49:04;;;;;;;;;;;17.90;99.90;;;;;;5059100;28;19979;-73
2022/08/31 01:51:30;;;;;;;;;;;17.80;99.90;;;;;;5065056;28;20037;-73
2022/08/31 01:53:57;;;;;;;;;;;17.80;99.90;;;;;;5067128;28;20312;-72
2022/08/31 01:56:25;;;;;;;;;;;17.80;99.90;;;;;;5057932;28;20397;-72
2022/08/31 01:58:54;;;;;;;;;;;17.80;99.90;;;;;;5058501;28;20068;-74
2022/08/31 02:01:45;;;;;;;;;;;17.70;99.90;;;;;;5061930;28;19932;-73
2022/08/31 02:04:13;;;;;;;;;;;17.70;99.90;;;;;;5059667;28;20029;-73
2022/08/31 02:06:41;;;;;;;;;;;17.70;99.90;;;;;;5058048;28;19935;-73
2022/08/31 02:09:10;;;;;;;;;;;17.80;99.90;;;;;;5062894;28;19928;-73
2022/08/31 02:11:37;;;;;;;;;;;17.80;99.90;;;;;;5059605;28;19924;-73
2022/08/31 02:14:06;;;;;;;;;;;17.80;99.90;;;;;;5061152;28;19929;-73
2022/08/31 02:16:32;;;;;;;;;;;17.80;99.90;;;;;;5056860;28;19932;-73
2022/08/31 02:19:00;;;;;;;;;;;17.80;99.90;;;;;;5060432;28;19933;-73
2022/08/31 02:21:26;;;;;;;;;;;17.80;99.90;;;;;;5070053;28;19943;-73
2022/08/31 02:23:53;;;;;;;;;;;17.80;99.90;;;;;;5066886;28;20494;-73
2022/08/31 02:26:21;;;;;;;;;;;17.90;99.90;;;;;;5070490;28;20406;-73
2022/08/31 02:28:48;;;;;;;;;;;17.90;99.90;;;;;;5052519;28;20679;-72
2022/08/31 02:31:16;;;;;;;;;;;17.90;99.90;;;;;;5067853;28;19947;-72
2022/08/31 02:33:50;;;;;;;;;;;17.90;99.90;;;;;;5057154;28;20022;-74
2022/08/31 02:38:50;;;;;;;;;;;17.90;99.90;;;;;;5035108;28;19929;-72
2022/08/31 02:41:18;;;;;;;;;;;18.00;99.90;;;;;;5016040;28;20398;-74
2022/08/31 02:43:45;;;;;;;;;;;17.90;99.90;;;;;;5021185;28;19933;-79
2022/08/31 02:46:12;;;;;;;;;;;18.00;99.90;;;;;;5008916;28;19953;-77
2022/08/31 02:48:48;;;;;;;;;;;18.00;99.90;;;;;;5009473;28;19930;-74
2022/08/31 02:51:18;;;;;;;;;;;18.00;99.90;;;;;;5011978;28;20377;-76
2022/08/31 02:53:46;;;;;;;;;;;18.00;99.90;;;;;;5028848;28;20027;-75
2022/08/31 02:56:14;;;;;;;;;;;18.00;99.90;;;;;;5033900;28;19926;-74
2022/08/31 02:58:41;;;;;;;;;;;17.90;99.90;;;;;;5028873;28;20306;-74
2022/08/31 03:01:08;;;;;;;;;;;17.90;99.90;;;;;;5029936;28;19947;-74
2022/08/31 03:03:36;;;;;;;;;;;17.90;99.90;;;;;;5015677;28;20575;-73
2022/08/31 03:06:04;;;;;;;;;;;17.90;99.90;;;;;;5011773;28;19932;-74
2022/08/31 03:08:31;;;;;;;;;;;17.90;99.90;;;;;;5023909;28;20027;-73
2022/08/31 03:11:00;;;;;;;;;;;17.90;99.90;;;;;;5019572;28;19961;-73
2022/08/31 03:13:28;;;;;;;;;;;17.80;99.90;;;;;;5028245;28;19929;-73
2022/08/31 03:15:55;;;;;;;;;;;17.80;99.90;;;;;;5029525;28;20485;-73
2022/08/31 03:18:22;;;;;;;;;;;17.70;99.90;;;;;;5027498;28;19925;-73
2022/08/31 03:20:49;;;;;;;;;;;17.70;99.90;;;;;;5023735;28;19938;-72
2022/08/31 03:23:18;;;;;;;;;;;17.60;99.90;;;;;;5020683;28;20409;-72
2022/08/31 03:25:46;;;;;;;;;;;17.50;99.90;;;;;;5019762;28;20596;-72
2022/08/31 03:28:13;;;;;;;;;;;17.50;99.90;;;;;;5030376;28;19929;-73
2022/08/31 03:30:44;;;;;;;;;;;17.40;99.90;;;;;;5007718;28;19925;-73
2022/08/31 03:33:12;;;;;;;;;;;17.40;99.90;;;;;;5009522;28;19941;-72
2022/08/31 03:35:42;;;;;;;;;;;17.30;99.90;;;;;;5017822;28;19981;-73
2022/08/31 03:38:09;;;;;;;;;;;17.30;99.90;;;;;;5023062;28;19934;-72
2022/08/31 03:40:37;;;;;;;;;;;17.30;99.90;;;;;;5024469;28;19929;-73
2022/08/31 03:43:04;;;;;;;;;;;17.20;99.90;;;;;;5028271;28;20018;-73
2022/08/31 03:45:33;;;;;;;;;;;17.10;99.90;;;;;;5010506;28;20056;-73
2022/08/31 03:48:00;;;;;;;;;;;17.10;99.90;;;;;;5011020;28;20005;-71
2022/08/31 03:50:27;;;;;;;;;;;17.00;99.90;;;;;;5012119;28;19929;-72
2022/08/31 03:53:02;;;;;;;;;;;17.00;99.90;;;;;;5033464;28;19929;-72
2022/08/31 03:55:29;;;;;;;;;;;17.00;99.90;;;;;;5029151;28;19929;-72
2022/08/31 03:57:57;;;;;;;;;;;17.00;99.90;;;;;;5036092;28;19933;-72
2022/08/31 04:00:24;;;;;;;;;;;17.00;99.90;;;;;;5026625;28;20394;-74
2022/08/31 04:02:58;;;;;;;;;;;16.90;99.90;;;;;;5030522;28;20453;-73
2022/08/31 04:05:32;;;;;;;;;;;16.80;99.90;;;;;;5017817;28;19929;-73
2022/08/31 04:08:02;;;;;;;;;;;16.80;99.90;;;;;;5024860;28;19936;-73
2022/08/31 04:10:47;;;;;;;;;;;16.70;99.90;;;;;;5018011;28;19937;-73
2022/08/31 04:13:34;;;;;;;;;;;16.70;99.90;;;;;;5024183;28;20043;-73
2022/08/31 04:16:33;;;;;;;;;;;16.60;99.90;;;;;;5023228;28;19935;-73
2022/08/31 04:19:06;;;;;;;;;;;16.60;99.90;;;;;;5025719;28;20326;-74
2022/08/31 04:21:37;;;;;;;;;;;16.50;99.90;;;;;;5012152;28;19975;-76
2022/08/31 04:24:04;;;;;;;;;;;16.50;99.90;;;;;;5026383;28;19929;-74
2022/08/31 04:26:32;;;;;;;;;;;16.50;99.90;;;;;;5018681;28;19940;-75
2022/08/31 04:29:01;;;;;;;;;;;16.50;99.90;;;;;;5026392;28;19928;-75
2022/08/31 04:31:28;;;;;;;;;;;16.50;99.90;;;;;;5024393;28;19929;-75
2022/08/31 04:33:56;;;;;;;;;;;16.40;99.90;;;;;;5036676;28;20019;-75
2022/08/31 04:36:24;;;;;;;;;;;16.70;99.90;;;;;;5028234;28;19925;-74
2022/08/31 04:38:55;;;;;;;;;;;16.50;99.90;;;;;;5024636;28;19935;-74
2022/08/31 04:41:23;;;;;;;;;;;16.40;99.90;;;;;;5035652;28;19937;-73
2022/08/31 04:43:52;;;;;;;;;;;16.40;99.90;;;;;;5025804;28;19929;-73
2022/08/31 04:46:21;;;;;;;;;;;16.40;99.90;;;;;;5023236;28;19933;-74
2022/08/31 04:48:48;;;;;;;;;;;16.40;99.90;;;;;;5026593;28;19940;-74
2022/08/31 04:51:17;;;;;;;;;;;16.40;99.90;;;;;;5008236;28;20159;-74
2022/08/31 04:53:44;;;;;;;;;;;15.10;99.90;;;;;;5025234;28;19947;-74
2022/08/31 04:56:13;;;;;;;;;;;16.30;99.90;;;;;;5021260;28;20020;-74
2022/08/31 04:58:42;;;;;;;;;;;16.30;99.90;;;;;;5018125;28;20497;-74
2022/08/31 05:01:09;;;;;;;;;;;16.30;99.90;;;;;;5024949;28;19933;-74
2022/08/31 05:03:58;;;;;;;;;;;16.30;99.90;;;;;;5024542;28;20056;-73
2022/08/31 05:06:26;;;;;;;;;;;16.30;99.90;;;;;;5027192;28;19944;-73
2022/08/31 05:08:53;;;;;;;;;;;16.30;99.90;;;;;;5020712;28;20404;-72
2022/08/31 05:11:21;;;;;;;;;;;16.30;99.90;;;;;;5023382;28;19929;-75
2022/08/31 05:13:49;;;;;;;;;;;16.30;99.90;;;;;;5020100;28;19941;-75
2022/08/31 05:16:16;;;;;;;;;;;16.40;99.90;;;;;;5026443;28;20381;-75
2022/08/31 05:18:44;;;;;;;;;;;16.40;99.90;;;;;;5026000;28;19932;-74
2022/08/31 05:21:12;;;;;;;;;;;16.40;99.90;;;;;;5019728;28;20031;-73
2022/08/31 05:23:39;;;;;;;;;;;16.40;99.90;;;;;;5008183;28;19930;-74
2022/08/31 05:26:06;;;;;;;;;;;16.50;99.90;;;;;;5007368;28;19933;-73
2022/08/31 05:28:33;;;;;;;;;;;16.50;99.90;;;;;;5024408;28;20381;-73
2022/08/31 05:31:00;;;;;;;;;;;16.50;99.90;;;;;;5023526;28;19961;-74
2022/08/31 05:33:35;;;;;;;;;;;16.50;99.90;;;;;;5015939;28;19975;-73
2022/08/31 05:36:03;;;;;;;;;;;16.60;99.90;;;;;;5011144;28;19929;-74
2022/08/31 05:38:31;;;;;;;;;;;16.70;99.90;;;;;;5023419;28;20016;-73
2022/08/31 05:40:59;;;;;;;;;;;16.80;99.90;;;;;;5027541;28;19929;-74
2022/08/31 05:43:26;;;;;;;;;;;17.00;99.90;;;;;;5029405;28;19937;-74
2022/08/31 05:45:54;;;;;;;;;;;17.20;99.90;;;;;;5030814;28;19949;-74
2022/08/31 05:48:22;;;;;;;;;;;17.50;99.90;;;;;;5030439;28;20326;-74
2022/08/31 05:50:49;;;;;;;;;;;17.90;99.90;;;;;;5027750;28;19929;-73
2022/08/31 05:53:16;;;;;;;;;;;17.90;99.90;;;;;;5023754;28;19940;-73
2022/08/31 05:55:44;;;;;;;;;;;17.90;99.90;;;;;;5020320;28;19933;-72
2022/08/31 05:58:11;;;;;;;;;;;17.90;99.90;;;;;;5039955;28;21872;-71
2022/08/31 06:00:38;;;;;;;;;;;18.10;99.90;;;;;;5058839;28;19926;-72
2022/08/31 06:03:24;;;;;;;;;;;18.30;99.90;;;;;;5044786;28;19924;-71
2022/08/31 06:05:52;;;;;;;;;;;18.30;99.90;;;;;;5033875;28;19929;-72
2022/08/31 06:08:20;;;;;;;;;;;18.30;99.90;;;;;;5034394;28;19988;-72
2022/08/31 06:10:51;;;;;;;;;;;18.30;99.90;;;;;;5016271;28;19925;-72
2022/08/31 06:13:19;;;;;;;;;;;18.30;99.90;;;;;;5029247;28;19935;-72
2022/08/31 06:15:46;;;;;;;;;;;18.30;99.90;;;;;;5039986;28;19990;-72
2022/08/31 06:18:13;;;;;;;;;;;18.20;99.90;;;;;;5038463;28;19929;-72
2022/08/31 06:20:40;;;;;;;;;;;18.20;99.90;;;;;;5029616;28;19940;-72
2022/08/31 06:23:07;;;;;;;;;;;18.30;99.90;;;;;;5020589;28;19972;-73
2022/08/31 06:25:47;;;;;;;;;;;18.60;99.90;;;;;;5030555;28;19929;-76
2022/08/31 06:28:17;;;;;;;;;;;19.10;99.90;;;;;;5032933;28;19935;-74
2022/08/31 06:30:44;;;;;;;;;;;19.40;99.90;;;;;;5026851;28;20758;-77
2022/08/31 06:33:10;;;;;;;;;;;19.80;99.90;;;;;;5025628;28;20025;-73
2022/08/31 06:35:56;;;;;;;;;;;20.30;99.90;;;;;;5020325;28;19926;-76
2022/08/31 06:38:50;;;;;;;;;;;20.40;99.90;;;;;;5035750;28;19928;-76
2022/08/31 06:41:55;;;;;;;;;;;21.30;99.90;;;;;;5027639;28;19937;-74
2022/08/31 06:44:35;;;;;;;;;;;21.80;99.90;;;;;;5021041;28;19936;-76
2022/08/31 06:47:18;;;;;;;;;;;22.50;99.90;;;;;;5028455;28;19933;-75
2022/08/31 06:49:45;;;;;;;;;;;22.80;99.90;;;;;;5031742;28;19929;-75
2022/08/31 06:52:13;;;;;;;;;;;23.20;99.90;;;;;;5029421;28;19925;-74
2022/08/31 06:54:42;;;;;;;;;;;23.30;99.90;;;;;;5024812;28;20324;-78
2022/08/31 06:57:28;;;;;;;;;;;23.90;99.90;;;;;;5029555;28;20011;-76
2022/08/31 07:00:14;;;;;;;;;;;24.30;99.90;;;;;;5025165;28;20052;-73
2022/08/31 07:02:49;;;;;;;;;;;23.90;99.90;;;;;;5036867;28;19929;-76
2022/08/31 07:05:16;;;;;;;;;;;23.30;99.90;;;;;;5036869;28;20307;-74
2022/08/31 07:07:43;;;;;;;;;;;22.60;99.90;;;;;;5017067;28;20320;-76
2022/08/31 07:10:11;;;;;;;;;;;22.10;99.90;;;;;;5032667;28;20302;-78
2022/08/31 07:12:39;;;;;;;;;;;21.60;99.90;;;;;;5028444;28;20415;-78
2022/08/31 07:15:07;;;;;;;;;;;21.40;99.90;;;;;;5044895;28;20631;-74
2022/08/31 07:17:35;;;;;;;;;;;21.40;99.90;;;;;;5031240;28;19929;-75
2022/08/31 07:20:06;;;;;;;;;;;21.40;99.90;;;;;;5030044;28;20421;-74
2022/08/31 07:22:32;;;;;;;;;;;21.40;99.90;;;;;;5029870;28;19939;-80
2022/08/31 07:25:14;;;;;;;;;;;21.30;99.90;;;;;;5024632;28;19932;-76
2022/08/31 07:27:41;;;;;;;;;;;21.30;99.90;;;;;;5030029;28;19929;-80
2022/08/31 07:30:08;;;;;;;;;;;21.20;99.90;;;;;;5020343;28;19929;-78
2022/08/31 07:32:37;;;;;;;;;;;21.10;99.90;;;;;;5028595;28;19929;-72
2022/08/31 07:35:04;;;;;;;;;;;21.00;99.90;;;;;;5022475;28;19932;-72
2022/08/31 07:43:03;;;;;;;;;;;20.80;99.90;;;;;;5019772;28;19929;-72
2022/08/31 07:45:30;;;;;;;;;;;20.40;99.90;;;;;;5040058;28;19940;-72
2022/08/31 07:47:59;;;;;;;;;;;20.60;99.90;;;;;;5034436;28;19991;-72
2022/08/31 07:50:30;;;;;;;;;;;20.90;99.90;;;;;;5026164;28;20036;-73
2022/08/31 07:53:13;;;;;;;;;;;20.90;99.90;;;;;;5029831;28;20522;-73
2022/08/31 07:56:06;;;;;;;;;;;21.20;99.90;;;;;;5017926;28;19929;-73
2022/08/31 07:58:38;;;;;;;;;;;21.80;99.90;;;;;;5010782;28;19929;-73
2022/08/31 08:01:06;;;;;;;;;;;22.50;99.90;;;;;;5020676;28;19933;-73
2022/08/31 08:03:35;;;;;;;;;;;23.30;99.90;;;;;;5017876;28;20040;-74
2022/08/31 08:06:20;;;;;;;;;;;24.10;99.90;;;;;;5020085;28;19936;-73
2022/08/31 08:09:10;;;;;;;;;;;24.70;99.90;;;;;;5019985;28;19983;-74
2022/08/31 08:12:12;;;;;;;;;;;25.10;99.90;;;;;;4999137;28;19934;-74
2022/08/31 08:14:59;;;;;;;;;;;25.20;99.90;;;;;;4975366;28;20644;-74
2022/08/31 08:17:37;;;;;;;;;;;25.10;99.90;;;;;;5017680;28;19960;-74
2022/08/31 08:20:09;;;;;;;;;;;25.00;99.90;;;;;;5008128;28;20561;-71
2022/08/31 08:22:37;;;;;;;;;;;25.20;99.90;;;;;;5009419;28;19960;-72
2022/08/31 08:25:39;;;;;;;;;;;25.10;99.90;;;;;;4988091;28;20791;-73
2022/08/31 08:28:16;;;;;;;;;;;24.90;99.90;;;;;;5008446;28;19926;-74
2022/08/31 08:30:43;;;;;;;;;;;24.50;99.90;;;;;;5018043;28;19929;-74
2022/08/31 08:33:10;;;;;;;;;;;24.40;99.90;;;;;;5038930;28;19952;-73
2022/08/31 08:35:40;;;;;;;;;;;24.80;99.90;;;;;;5022285;28;19929;-73
2022/08/31 08:38:07;;;;;;;;;;;25.40;99.90;;;;;;5023758;28;19929;-73
2022/08/31 08:40:41;;;;;;;;;;;25.80;99.90;;;;;;5007855;28;19925;-73
2022/08/31 08:43:10;;;;;;;;;;;25.70;99.90;;;;;;5027277;28;19929;-73
2022/08/31 08:45:37;;;;;;;;;;;25.20;99.90;;;;;;5025681;28;19940;-73
2022/08/31 08:48:10;;;;;;;;;;;25.30;99.90;;;;;;5019624;28;20522;-73
2022/08/31 08:50:41;;;;;;;;;;;25.70;99.90;;;;;;5014612;28;19944;-73
2022/08/31 08:53:09;;;;;;;;;;;25.70;99.90;;;;;;5008333;28;19925;-78
2022/08/31 08:55:41;;;;;;;;;;;26.10;99.90;;;;;;5022873;28;19925;-80
2022/08/31 08:58:09;;;;;;;;;;;26.10;99.90;;;;;;5028898;28;19947;-74
2022/08/31 09:00:45;;;;;;;;;;;25.90;99.90;;;;;;5026117;28;19929;-78
2022/08/31 09:03:19;;;;;;;;;;;25.70;99.90;;;;;;5024039;28;20184;-78
2022/08/31 09:06:14;;;;;;;;;;;25.40;99.90;;;;;;5030705;28;19925;-77
2022/08/31 09:09:07;;;;;;;;;;;25.40;99.90;;;;;;5026567;28;19929;-78
2022/08/31 09:11:45;;;;;;;;;;;25.30;99.90;;;;;;5025336;28;19925;-77
2022/08/31 09:14:19;;;;;;;;;;;25.20;99.90;;;;;;5022342;28;19999;-75
2022/08/31 09:16:50;;;;;;;;;;;25.30;99.90;;;;;;5037915;28;20005;-75
2022/08/31 09:19:19;;;;;;;;;;;25.40;99.90;;;;;;5026857;28;19931;-77
2022/08/31 09:21:49;;;;;;;;;;;25.30;99.90;;;;;;5020293;28;19929;-78
2022/08/31 09:24:18;;;;;;;;;;;25.00;99.90;;;;;;5028303;28;19929;-76
2022/08/31 09:27:16;;;;;;;;;;;24.70;99.90;;;;;;5025970;28;19932;-75
2022/08/31 09:29:45;;;;;;;;;;;24.80;99.90;;;;;;5028371;28;19933;-76
2022/08/31 09:32:16;;;;;;;;;;;24.90;99.90;;;;;;5025023;28;19937;-77
2022/08/31 09:34:51;;;;;;;;;;;25.00;99.90;;;;;;5022475;28;19929;-75
2022/08/31 09:37:22;;;;;;;;;;;24.90;99.90;;;;;;5033660;28;20578;-75
2022/08/31 09:39:50;;;;;;;;;;;24.50;99.90;;;;;;5020596;28;19925;-76
2022/08/31 09:42:20;;;;;;;;;;;23.00;99.90;;;;;;5017524;28;19929;-78
2022/08/31 09:44:47;;;;;;;;;;;23.60;99.90;;;;;;5022045;28;20027;-79
2022/08/31 09:47:41;;;;;;;;;;;23.40;99.90;;;;;;5033792;28;19925;-75
2022/08/31 09:50:10;;;;;;;;;;;23.20;99.90;;;;;;5032800;28;19935;-75
2022/08/31 09:55:24;;;;;;;;;;;22.40;99.90;;;;;;5032566;28;19936;-77
2022/08/31 09:57:53;;;;;;;;;;;23.10;99.90;;;;;;5032377;28;19987;-74
2022/08/31 10:00:30;;;;;;;;;;;22.90;99.90;;;;;;5032790;28;20016;-73
2022/08/31 10:02:58;;;;;;;;;;;22.90;99.90;;;;;;5027387;28;19936;-73
2022/08/31 10:05:39;;;;;;;;;;;23.00;99.90;;;;;;5028562;28;19925;-73
2022/08/31 10:08:12;;;;;;;;;;;23.00;99.90;;;;;;5032305;28;19948;-75
2022/08/31 10:10:41;;;;;;;;;;;23.10;99.90;;;;;;5032922;28;19926;-75
2022/08/31 10:13:11;;;;;;;;;;;23.10;99.90;;;;;;5023864;28;19976;-78
2022/08/31 10:15:40;;;;;;;;;;;23.20;99.90;;;;;;5022273;28;19936;-75
2022/08/31 10:18:12;;;;;;;;;;;23.40;99.90;;;;;;5032617;28;19929;-73
2022/08/31 10:20:44;;;;;;;;;;;23.40;99.90;;;;;;5030952;28;19932;-74
2022/08/31 10:23:17;;;;;;;;;;;23.50;99.90;;;;;;5041712;28;20021;-79
2022/08/31 10:25:47;;;;;;;;;;;23.70;99.90;;;;;;5046785;28;19977;-77
2022/08/31 10:28:17;;;;;;;;;;;23.70;99.90;;;;;;5040577;28;19932;-76
2022/08/31 10:30:47;;;;;;;;;;;23.70;99.90;;;;;;5027865;28;19974;-75
2022/08/31 10:33:16;;;;;;;;;;;23.70;99.90;;;;;;5031666;28;20375;-75
2022/08/31 10:35:50;;;;;;;;;;;23.70;99.90;;;;;;5031703;28;20386;-74
2022/08/31 10:38:24;;;;;;;;;;;23.90;99.90;;;;;;5031142;28;19925;-74
2022/08/31 10:40:59;;;;;;;;;;;24.10;99.90;;;;;;5017658;28;19999;-76
2022/08/31 10:43:28;;;;;;;;;;;24.50;99.90;;;;;;5019319;28;20040;-75
2022/08/31 10:45:54;;;;;;;;;;;24.90;99.90;;;;;;5017831;28;19937;-76
2022/08/31 10:48:23;;;;;;;;;;;24.90;99.90;;;;;;5011438;28;19987;-76
2022/08/31 10:50:52;;;;;;;;;;;25.10;99.90;;;;;;5015663;28;19960;-75
2022/08/31 10:53:32;;;;;;;;;;;25.20;99.90;;;;;;5021031;28;19934;-77
2022/08/31 10:56:01;;;;;;;;;;;25.40;99.90;;;;;;5010506;28;19934;-76
2022/08/31 10:58:36;;;;;;;;;;;25.40;99.90;;;;;;5029049;28;20028;-76
2022/08/31 11:01:06;;;;;;;;;;;25.40;99.90;;;;;;5019282;28;19929;-77
2022/08/31 11:03:41;;;;;;;;;;;25.40;99.90;;;;;;5027840;28;19944;-79
2022/08/31 11:06:12;;;;;;;;;;;25.60;99.90;;;;;;5030041;28;19939;-76
2022/08/31 11:08:48;;;;;;;;;;;25.60;99.90;;;;;;5029901;28;20439;-80
2022/08/31 11:11:18;;;;;;;;;;;25.70;99.90;;;;;;5029292;28;19929;-78
2022/08/31 11:13:59;;;;;;;;;;;25.70;99.90;;;;;;5019156;28;20023;-73
2022/08/31 11:16:44;;;;;;;;;;;26.10;99.90;;;;;;5011691;28;19937;-73
2022/08/31 11:19:26;;;;;;;;;;;26.10;99.90;;;;;;5016719;28;20277;-73
2022/08/31 11:21:58;;;;;;;;;;;26.10;99.90;;;;;;5033426;28;19968;-73
2022/08/31 11:24:39;;;;;;;;;;;26.40;99.90;;;;;;5029781;28;20071;-73
2022/08/31 11:27:13;;;;;;;;;;;26.90;99.20;;;;;;5018006;28;19956;-73
2022/08/31 11:29:42;;;;;;;;;;;26.90;99.50;;;;;;5019242;28;19929;-73
2022/08/31 11:32:12;;;;;;;;;;;27.00;99.20;;;;;;5027628;28;19933;-73
2022/08/31 11:34:46;;;;;;;;;;;27.10;99.00;;;;;;5012275;28;19956;-73
2022/08/31 11:37:13;;;;;;;;;;;27.20;98.90;;;;;;5015520;28;20639;-73
2022/08/31 11:39:44;;;;;;;;;;;27.20;99.00;;;;;;5024086;28;19936;-73
2022/08/31 11:42:31;;;;;;;;;;;27.10;98.10;;;;;;5028816;28;19941;-73
2022/08/31 11:45:04;;;;;;;;;;;26.60;97.90;;;;;;5015467;28;20440;-72
2022/08/31 11:47:34;;;;;;;;;;;26.50;98.40;;;;;;5023972;28;20015;-72
2022/08/31 11:50:04;;;;;;;;;;;26.20;98.60;;;;;;5019347;28;19948;-73
2022/08/31 11:52:46;;;;;;;;;;;26.10;98.80;;;;;;5024693;28;20028;-72
2022/08/31 11:55:28;;;;;;;;;;;26.10;98.90;;;;;;5007583;28;19975;-73
2022/08/31 11:58:10;;;;;;;;;;;26.20;98.50;;;;;;5015628;28;19929;-73
2022/08/31 12:00:50;;;;;;;;;;;26.40;99.00;;;;;;5024009;28;19936;-72
2022/08/31 12:03:35;;;;;;;;;;;26.50;98.60;;;;;;5021077;28;20345;-73
2022/08/31 12:06:02;;;;;;;;;;;26.70;98.10;;;;;;5027236;28;19952;-72
2022/08/31 12:08:31;;;;;;;;;;;26.60;98.30;;;;;;5026992;28;19944;-73
2022/08/31 12:11:02;;;;;;;;;;;26.70;98.40;;;;;;5026004;28;19929;-73
2022/08/31 12:13:35;;;;;;;;;;;27.00;98.40;;;;;;5019342;28;19936;-73
2022/08/31 12:16:07;;;;;;;;;;;27.50;97.30;;;;;;5014034;28;19935;-72
2022/08/31 12:18:52;;;;;;;;;;;27.50;96.70;;;;;;5033079;28;19939;-72
2022/08/31 12:24:13;;;;;;;;;;;27.10;96.60;;;;;;5012833;28;19948;-72
2022/08/31 12:26:46;;;;;;;;;;;26.80;97.00;;;;;;5008373;28;19925;-73
2022/08/31 12:29:20;;;;;;;;;;;26.70;97.00;;;;;;5015822;28;19932;-72
2022/08/31 12:32:00;;;;;;;;;;;26.50;97.10;;;;;;5017329;28;20429;-72
2022/08/31 12:34:27;;;;;;;;;;;26.40;97.30;;;;;;5022754;28;19943;-71
2022/08/31 12:36:54;;;;;;;;;;;26.10;97.10;;;;;;5026487;28;20682;-72
2022/08/31 12:39:22;;;;;;;;;;;26.20;97.80;;;;;;5026505;28;19936;-72
2022/08/31 12:41:51;;;;;;;;;;;26.20;97.70;;;;;;5027718;28;20399;-71
2022/08/31 12:44:20;;;;;;;;;;;26.30;97.50;;;;;;5017381;28;20374;-72
2022/08/31 12:46:57;;;;;;;;;;;26.30;97.50;;;;;;5025772;28;20405;-71
2022/08/31 12:49:45;;;;;;;;;;;26.30;97.60;;;;;;5023858;28;19925;-72
2022/08/31 12:52:19;;;;;;;;;;;26.30;97.80;;;;;;4999134;28;19928;-71
2022/08/31 12:55:13;;;;;;;;;;;26.60;97.90;;;;;;5016887;28;19930;-71
2022/08/31 12:57:49;;;;;;;;;;;26.90;97.80;;;;;;4973919;28;19933;-71
2022/08/31 13:00:25;;;;;;;;;;;27.20;97.10;;;;;;5035663;28;20578;-71
2022/08/31 13:02:53;;;;;;;;;;;27.10;96.80;;;;;;5030169;28;19956;-71
2022/08/31 13:05:21;;;;;;;;;;;26.70;96.60;;;;;;5020640;28;19944;-71
2022/08/31 13:07:49;;;;;;;;;;;26.70;96.90;;;;;;5010595;28;19930;-71
2022/08/31 13:10:23;;;;;;;;;;;26.60;97.20;;;;;;5010577;28;19979;-71
2022/08/31 13:12:51;;;;;;;;;;;26.70;97.40;;;;;;5024154;28;20004;-71
2022/08/31 13:15:22;;;;;;;;;;;26.70;97.10;;;;;;5026449;28;19960;-71
2022/08/31 13:17:50;;;;;;;;;;;26.60;96.60;;;;;;5015070;28;20599;-71
2022/08/31 13:20:18;;;;;;;;;;;26.40;97.10;;;;;;5036994;28;19957;-72
2022/08/31 13:22:47;;;;;;;;;;;26.50;97.30;;;;;;5019675;28;19936;-72
2022/08/31 13:25:18;;;;;;;;;;;26.80;97.50;;;;;;5028494;28;19931;-72
2022/08/31 13:27:46;;;;;;;;;;;27.00;97.30;;;;;;5016981;28;19929;-72
2022/08/31 13:30:17;;;;;;;;;;;27.40;96.80;;;;;;5021694;28;19929;-72
2022/08/31 13:32:45;;;;;;;;;;;27.60;96.30;;;;;;5021593;28;20680;-72
2022/08/31 13:35:14;;;;;;;;;;;27.60;96.10;;;;;;5021283;28;19929;-72
2022/08/31 13:37:42;;;;;;;;;;;27.60;95.80;;;;;;5026173;28;19932;-72
2022/08/31 13:40:10;;;;;;;;;;;27.40;95.60;;;;;;5023727;28;19929;-72
2022/08/31 13:42:41;;;;;;;;;;;27.20;95.90;;;;;;5015750;28;20357;-71
2022/08/31 13:45:25;;;;;;;;;;;26.90;95.90;;;;;;5015544;28;19933;-73
2022/08/31 13:47:54;;;;;;;;;;;26.90;96.20;;;;;;5012773;28;19929;-71
2022/08/31 13:50:21;;;;;;;;;;;27.10;96.20;;;;;;5024275;28;19993;-74
2022/08/31 13:52:49;;;;;;;;;;;27.30;96.10;;;;;;5009281;28;19936;-71
2022/08/31 13:55:28;;;;;;;;;;;27.20;95.80;;;;;;5027934;28;19933;-71
2022/08/31 13:58:00;;;;;;;;;;;27.10;95.70;;;;;;5016767;28;19932;-71
2022/08/31 14:00:33;;;;;;;;;;;27.20;96.00;;;;;;5041332;28;20044;-71
2022/08/31 14:03:15;;;;;;;;;;;27.50;95.60;;;;;;5010528;28;19934;-72
2022/08/31 14:08:27;;;;;;;;;;;27.80;94.50;;;;;;5234558;22;19928;-71
2022/08/31 14:10:53;;;;;;;;;;;27.80;94.70;;;;;;5037916;28;19935;-71
2022/08/31 14:13:24;;;;;;;;;;;27.70;94.20;;;;;;5048999;28;19935;-74
2022/08/31 14:15:52;;;;;;;;;;;27.60;94.10;;;;;;5051311;28;19929;-73
2022/08/31 14:18:23;;;;;;;;;;;27.30;93.80;;;;;;5069212;28;20392;-73
2022/08/31 14:23:31;;;;;;;;;;;26.70;94.30;;;;;;5045792;28;19975;-81
2022/08/31 14:25:59;;;;;;;;;;;26.60;94.30;;;;;;5037732;28;19933;-80
2022/08/31 14:28:35;;;;;;;;;;;26.60;94.50;;;;;;5029675;28;19934;-79
2022/08/31 14:31:08;;;;;;;;;;;26.50;94.40;;;;;;5013952;28;19999;-80
2022/08/31 14:33:35;;;;;;;;;;;26.50;94.40;;;;;;5007043;28;19961;-80
2022/08/31 14:36:13;;;;;;;;;;;26.40;94.30;;;;;;5008307;28;19945;-80
2022/08/31 14:38:41;;;;;;;;;;;26.50;94.50;;;;;;5013163;28;20296;-81
2022/08/31 14:41:09;;;;;;;;;;;26.50;94.70;;;;;;5014495;28;20419;-81
2022/08/31 14:43:38;;;;;;;;;;;26.50;94.50;;;;;;5029303;28;19929;-79
2022/08/31 14:46:08;;;;;;;;;;;26.50;94.60;;;;;;5021280;28;19952;-81
2022/08/31 14:48:35;;;;;;;;;;;26.60;94.10;;;;;;5035196;28;19929;-81
2022/08/31 14:51:05;;;;;;;;;;;26.60;94.40;;;;;;5017007;28;19925;-80
2022/08/31 14:53:36;;;;;;;;;;;26.70;94.30;;;;;;5021668;28;20053;-79
2022/08/31 14:56:05;;;;;;;;;;;26.90;94.00;;;;;;5021217;28;19968;-78
2022/08/31 14:58:33;;;;;;;;;;;26.80;93.90;;;;;;5017395;28;19992;-78
2022/08/31 15:01:04;;;;;;;;;;;26.50;93.60;;;;;;5016780;28;20317;-80
2022/08/31 15:03:33;;;;;;;;;;;26.40;94.00;;;;;;5005757;28;19930;-80